Time;durP1;ratioP1;P1;durP2;ratioP2;P2;SDS_P1;SDS_P2;PMS_P1;PMS_P2;Temp;Humidity;BMP_temperature;BMP_pressure;BME280_temperature;BME280_humidity;BME280_pressure;Samples;Min_cycle;Max_cycle;Signal;HPM_P1;HPM_P2
2024/01/12 00:01:44;;;;;;;10.68;10.18;;;;;;;;;;5023924;28;20041;-57
2024/01/12 00:04:10;;;;;;;10.88;10.32;;;;;;;;;;5033014;28;20022;-55
2024/01/12 00:06:35;;;;;;;9.93;9.50;;;;;;;;;;5035116;28;20025;-56
2024/01/12 00:09:01;;;;;;;10.23;9.73;;;;;;;;;;5035249;28;20044;-55
2024/01/12 00:11:26;;;;;;;10.02;9.52;;;;;;;;;;5043250;28;20575;-53
2024/01/12 00:13:51;;;;;;;10.65;10.15;;;;;;;;;;5041992;28;20096;-55
2024/01/12 00:16:19;;;;;;;10.27;9.77;;;;;;;;;;5034150;28;20438;-55
2024/01/12 00:18:44;;;;;;;10.10;9.60;;;;;;;;;;5038289;28;20032;-55
2024/01/12 00:21:10;;;;;;;10.30;9.80;;;;;;;;;;5030693;28;20388;-56
2024/01/12 00:23:35;;;;;;;10.45;9.95;;;;;;;;;;5035655;28;20088;-52
2024/01/12 00:26:01;;;;;;;10.38;9.88;;;;;;;;;;5036247;28;20445;-56
2024/01/12 00:28:30;;;;;;;10.02;9.52;;;;;;;;;;5035180;28;20500;-55
2024/01/12 00:30:56;;;;;;;10.70;10.20;;;;;;;;;;5032875;28;20075;-53
2024/01/12 00:33:21;;;;;;;10.10;9.60;;;;;;;;;;5023625;28;20026;-54
2024/01/12 00:35:46;;;;;;;10.50;10.00;;;;;;;;;;5032660;28;20416;-55
2024/01/12 00:38:12;;;;;;;10.52;10.02;;;;;;;;;;5028887;28;20021;-57
2024/01/12 00:40:38;;;;;;;10.40;9.90;;;;;;;;;;5032827;28;20083;-56
2024/01/12 00:43:03;;;;;;;10.40;9.90;;;;;;;;;;5040966;28;20075;-55
2024/01/12 00:45:28;;;;;;;10.43;9.93;;;;;;;;;;5030172;28;20080;-57
2024/01/12 00:47:54;;;;;;;10.88;10.27;;;;;;;;;;5034925;28;20029;-54
2024/01/12 00:50:19;;;;;;;10.10;9.60;;;;;;;;;;5035200;28;20018;-56
2024/01/12 00:52:45;;;;;;;10.65;10.15;;;;;;;;;;5026890;28;20110;-56
2024/01/12 00:55:11;;;;;;;9.82;9.43;;;;;;;;;;5029691;28;20481;-55
2024/01/12 00:57:36;;;;;;;10.10;9.60;;;;;;;;;;5036170;28;20022;-54
2024/01/12 01:00:02;;;;;;;10.48;9.98;;;;;;;;;;5034862;28;20034;-56
2024/01/12 01:02:29;;;;;;;11.00;10.40;;;;;;;;;;5032672;28;20051;-56
2024/01/12 01:04:55;;;;;;;10.32;9.82;;;;;;;;;;5033022;28;20439;-55
2024/01/12 01:07:20;;;;;;;10.68;10.18;;;;;;;;;;5027758;28;20185;-55
2024/01/12 01:09:45;;;;;;;10.02;9.52;;;;;;;;;;5032608;28;20020;-54
2024/01/12 01:12:11;;;;;;;10.20;9.70;;;;;;;;;;5041300;28;20021;-55
2024/01/12 01:14:36;;;;;;;10.65;10.15;;;;;;;;;;5042409;28;20080;-54
2024/01/12 01:17:02;;;;;;;10.48;9.98;;;;;;;;;;5033420;28;20501;-56
2024/01/12 01:19:28;;;;;;;10.15;9.65;;;;;;;;;;5036180;28;20021;-55
2024/01/12 01:21:53;;;;;;;10.30;9.80;;;;;;;;;;5035724;28;20060;-55
2024/01/12 01:24:18;;;;;;;10.30;9.80;;;;;;;;;;5032488;28;20044;-58
2024/01/12 01:26:44;;;;;;;10.55;10.05;;;;;;;;;;5039522;28;20546;-56
2024/01/12 01:29:09;;;;;;;10.25;9.75;;;;;;;;;;5023281;28;20079;-55
2024/01/12 01:31:34;;;;;;;10.38;9.88;;;;;;;;;;5032450;28;20340;-55
2024/01/12 01:34:00;;;;;;;10.05;9.55;;;;;;;;;;5027055;28;20040;-57
2024/01/12 01:36:25;;;;;;;10.20;9.70;;;;;;;;;;5042111;28;20017;-56
2024/01/12 01:38:51;;;;;;;10.95;10.35;;;;;;;;;;5048382;28;20425;-56
2024/01/12 01:41:16;;;;;;;10.52;10.02;;;;;;;;;;5032226;28;20037;-56
2024/01/12 01:43:41;;;;;;;10.30;9.80;;;;;;;;;;5030090;28;20464;-55
2024/01/12 01:46:07;;;;;;;9.80;9.40;;;;;;;;;;5038453;28;20362;-54
2024/01/12 01:48:32;;;;;;;10.10;9.60;;;;;;;;;;5030625;28;20040;-55
2024/01/12 01:50:58;;;;;;;10.60;10.10;;;;;;;;;;5031891;28;20022;-55
2024/01/12 01:53:23;;;;;;;10.52;10.02;;;;;;;;;;5043484;28;20480;-53
2024/01/12 01:55:49;;;;;;;10.32;9.82;;;;;;;;;;5038795;28;20018;-53
2024/01/12 01:58:15;;;;;;;10.05;9.55;;;;;;;;;;5029789;28;20033;-56
2024/01/12 02:00:41;;;;;;;10.02;9.63;;;;;;;;;;5032557;28;20059;-56
2024/01/12 02:03:07;;;;;;;10.63;10.13;;;;;;;;;;5031927;28;20480;-54
2024/01/12 02:05:34;;;;;;;10.45;9.95;;;;;;;;;;5031613;28;20026;-57
2024/01/12 02:07:59;;;;;;;9.93;9.50;;;;;;;;;;5031543;28;20075;-55
2024/01/12 02:10:25;;;;;;;10.68;10.15;;;;;;;;;;5030621;28;20033;-55
2024/01/12 02:12:50;;;;;;;10.77;10.27;;;;;;;;;;5031787;28;20013;-55
2024/01/12 02:15:17;;;;;;;10.40;9.90;;;;;;;;;;5037942;28;20028;-57
2024/01/12 02:17:43;;;;;;;10.30;9.80;;;;;;;;;;5031141;28;20051;-55
2024/01/12 02:20:08;;;;;;;10.00;9.50;;;;;;;;;;5034142;28;20498;-53
2024/01/12 02:22:34;;;;;;;10.25;9.75;;;;;;;;;;5036539;28;20120;-52
2024/01/12 02:24:59;;;;;;;10.60;10.10;;;;;;;;;;5029681;28;20104;-56
2024/01/12 02:27:25;;;;;;;10.10;9.60;;;;;;;;;;5035164;28;20063;-56
2024/01/12 02:29:51;;;;;;;11.10;10.55;;;;;;;;;;5035119;28;20527;-55
2024/01/12 02:32:16;;;;;;;10.50;10.00;;;;;;;;;;5034429;28;20025;-54
2024/01/12 02:34:41;;;;;;;10.25;9.75;;;;;;;;;;5047101;28;20532;-53
2024/01/12 02:37:07;;;;;;;9.90;9.50;;;;;;;;;;5045935;28;20036;-56
2024/01/12 02:39:32;;;;;;;12.52;11.77;;;;;;;;;;5037572;28;20029;-58
2024/01/12 02:41:58;;;;;;;9.90;9.45;;;;;;;;;;5027539;28;20029;-52
2024/01/12 02:44:23;;;;;;;10.23;9.73;;;;;;;;;;5034214;28;20087;-55
2024/01/12 02:46:48;;;;;;;10.02;9.52;;;;;;;;;;5032015;28;20859;-58
2024/01/12 02:49:14;;;;;;;10.60;10.10;;;;;;;;;;5027921;28;20041;-54
2024/01/12 02:51:39;;;;;;;10.20;9.70;;;;;;;;;;5034305;28;20025;-56
2024/01/12 02:54:04;;;;;;;10.80;10.30;;;;;;;;;;5039233;28;20024;-53
2024/01/12 02:56:30;;;;;;;10.30;9.80;;;;;;;;;;5030678;28;20385;-56
2024/01/12 02:58:55;;;;;;;10.57;10.07;;;;;;;;;;5027720;28;20108;-56
2024/01/12 03:01:20;;;;;;;9.63;9.23;;;;;;;;;;5034264;28;20049;-53
2024/01/12 03:03:46;;;;;;;10.40;9.90;;;;;;;;;;5033246;28;20068;-56
2024/01/12 03:06:11;;;;;;;10.50;10.00;;;;;;;;;;5033683;28;20025;-52
2024/01/12 03:08:36;;;;;;;10.50;10.00;;;;;;;;;;5034798;28;20089;-55
2024/01/12 03:11:02;;;;;;;10.52;10.02;;;;;;;;;;5034497;28;20017;-56
2024/01/12 03:13:28;;;;;;;10.40;9.90;;;;;;;;;;5033796;28;20075;-55
2024/01/12 03:15:53;;;;;;;10.30;9.80;;;;;;;;;;5026328;28;20022;-54
2024/01/12 03:18:19;;;;;;;10.40;9.90;;;;;;;;;;5035983;28;20045;-57
2024/01/12 03:20:44;;;;;;;10.60;10.10;;;;;;;;;;5041247;28;20520;-55
2024/01/12 03:23:09;;;;;;;11.05;10.45;;;;;;;;;;5028162;28;20505;-53
2024/01/12 03:25:35;;;;;;;10.27;9.77;;;;;;;;;;5033768;28;20025;-54
2024/01/12 03:28:00;;;;;;;10.45;9.95;;;;;;;;;;5033794;28;20025;-55
2024/01/12 03:30:25;;;;;;;10.57;10.07;;;;;;;;;;5026388;28;20166;-54
2024/01/12 03:32:51;;;;;;;10.10;9.60;;;;;;;;;;5037169;28;20025;-57
2024/01/12 03:35:16;;;;;;;10.82;10.25;;;;;;;;;;5041304;28;20060;-55
2024/01/12 03:37:42;;;;;;;10.20;9.70;;;;;;;;;;5041656;28;20048;-57
2024/01/12 03:40:07;;;;;;;10.52;10.02;;;;;;;;;;5042463;28;20112;-55
2024/01/12 03:42:32;;;;;;;10.00;9.50;;;;;;;;;;5033971;28;20022;-54
2024/01/12 03:44:58;;;;;;;10.73;10.18;;;;;;;;;;5035214;28;20025;-55
2024/01/12 03:47:23;;;;;;;10.48;9.98;;;;;;;;;;5038933;28;20667;-56
2024/01/12 03:49:49;;;;;;;9.90;9.50;;;;;;;;;;5029587;28;20028;-53
2024/01/12 03:52:14;;;;;;;10.30;9.80;;;;;;;;;;5033231;28;20612;-53
2024/01/12 03:54:39;;;;;;;10.30;9.80;;;;;;;;;;5046295;28;20070;-54
2024/01/12 03:57:05;;;;;;;10.70;10.20;;;;;;;;;;5042613;28;20071;-57
2024/01/12 03:59:30;;;;;;;10.40;9.90;;;;;;;;;;5039887;28;20087;-55
2024/01/12 04:01:55;;;;;;;10.27;9.77;;;;;;;;;;5032737;28;20065;-55
2024/01/12 04:04:21;;;;;;;9.57;9.18;;;;;;;;;;5032671;28;20473;-57
2024/01/12 04:06:46;;;;;;;11.10;10.50;;;;;;;;;;5020406;28;20030;-56
2024/01/12 04:09:13;;;;;;;9.65;9.25;;;;;;;;;;5025015;28;20100;-57
2024/01/12 04:11:39;;;;;;;11.23;10.63;;;;;;;;;;5031440;28;20021;-57
2024/01/12 04:14:04;;;;;;;11.00;10.40;;;;;;;;;;5033797;28;20409;-55
2024/01/12 04:16:29;;;;;;;10.65;10.15;;;;;;;;;;5030845;28;20025;-55
2024/01/12 04:18:55;;;;;;;10.73;10.23;;;;;;;;;;5035719;28;20037;-56
2024/01/12 04:21:20;;;;;;;10.25;9.75;;;;;;;;;;5025175;28;20117;-56
2024/01/12 04:23:46;;;;;;;12.18;11.48;;;;;;;;;;5035311;28;20071;-55
2024/01/12 04:26:11;;;;;;;11.25;10.65;;;;;;;;;;5031538;28;20671;-56
2024/01/12 04:28:37;;;;;;;10.75;10.25;;;;;;;;;;5028398;28;20033;-56
2024/01/12 04:31:02;;;;;;;11.45;10.85;;;;;;;;;;5036231;28;20018;-55
2024/01/12 04:33:29;;;;;;;11.15;10.55;;;;;;;;;;5036258;28;20025;-53
2024/01/12 04:35:54;;;;;;;10.93;10.35;;;;;;;;;;5042988;28;20233;-56
2024/01/12 04:38:19;;;;;;;10.98;10.38;;;;;;;;;;5032590;28;20021;-55
2024/01/12 04:40:45;;;;;;;10.48;9.98;;;;;;;;;;5032334;28;20033;-55
2024/01/12 04:43:10;;;;;;;10.82;10.32;;;;;;;;;;5034278;28;20108;-56
2024/01/12 04:45:35;;;;;;;10.75;10.25;;;;;;;;;;5033527;28;20037;-54
2024/01/12 04:48:01;;;;;;;10.70;10.20;;;;;;;;;;5031284;28;20342;-54
2024/01/12 04:50:26;;;;;;;11.65;11.05;;;;;;;;;;5031635;28;20018;-55
2024/01/12 04:52:52;;;;;;;11.35;10.75;;;;;;;;;;5037034;28;20025;-55
2024/01/12 04:55:18;;;;;;;10.65;10.13;;;;;;;;;;5030152;28;20025;-53
2024/01/12 04:57:43;;;;;;;11.55;10.95;;;;;;;;;;5031918;28;20076;-55
2024/01/12 05:00:08;;;;;;;10.63;10.13;;;;;;;;;;5033726;28;20156;-58
2024/01/12 05:02:34;;;;;;;10.60;10.10;;;;;;;;;;5032544;28;20116;-56
2024/01/12 05:04:59;;;;;;;10.88;10.27;;;;;;;;;;5032287;28;20032;-58
2024/01/12 05:07:24;;;;;;;10.35;9.85;;;;;;;;;;5021000;28;20032;-54
2024/01/12 05:09:50;;;;;;;10.93;10.35;;;;;;;;;;5026708;28;20021;-56
2024/01/12 05:12:15;;;;;;;10.55;10.05;;;;;;;;;;5032488;28;20495;-56
2024/01/12 05:14:41;;;;;;;12.23;11.52;;;;;;;;;;5032579;28;20059;-58
2024/01/12 05:17:07;;;;;;;11.20;10.60;;;;;;;;;;5031874;28;20094;-57
2024/01/12 05:19:32;;;;;;;10.60;10.10;;;;;;;;;;5035767;28;20480;-56
2024/01/12 05:21:57;;;;;;;10.82;10.32;;;;;;;;;;5036323;28;20025;-58
2024/01/12 05:24:23;;;;;;;12.48;11.77;;;;;;;;;;5032830;28;20028;-54
2024/01/12 05:26:48;;;;;;;13.20;12.40;;;;;;;;;;5020995;28;20083;-55
2024/01/12 05:29:14;;;;;;;11.52;10.93;;;;;;;;;;5030718;28;20056;-56
2024/01/12 05:31:42;;;;;;;12.00;11.40;;;;;;;;;;5031205;28;20024;-56
2024/01/12 05:34:07;;;;;;;11.60;11.00;;;;;;;;;;5019449;28;20026;-55
2024/01/12 05:36:33;;;;;;;12.63;11.93;;;;;;;;;;5031348;28;20018;-56
2024/01/12 05:38:58;;;;;;;12.18;11.48;;;;;;;;;;5031210;28;20075;-54
2024/01/12 05:41:23;;;;;;;11.63;11.02;;;;;;;;;;5023767;28;20057;-55
2024/01/12 05:43:49;;;;;;;12.65;11.95;;;;;;;;;;5030738;28;20017;-56
2024/01/12 05:46:14;;;;;;;11.23;10.63;;;;;;;;;;5031604;28;20025;-56
2024/01/12 05:48:39;;;;;;;11.10;10.50;;;;;;;;;;5031231;28;20132;-56
2024/01/12 05:51:05;;;;;;;11.50;10.90;;;;;;;;;;5031344;28;20435;-56
2024/01/12 05:53:30;;;;;;;12.10;11.40;;;;;;;;;;5030683;28;20022;-55
2024/01/12 05:55:55;;;;;;;14.45;13.48;;;;;;;;;;5028999;28;20084;-54
2024/01/12 05:58:21;;;;;;;10.63;10.13;;;;;;;;;;5031674;28;20087;-56
2024/01/12 06:00:47;;;;;;;10.75;10.25;;;;;;;;;;5032250;28;20112;-56
2024/01/12 06:03:13;;;;;;;12.30;11.60;;;;;;;;;;5028108;28;20558;-57
2024/01/12 06:05:38;;;;;;;11.50;10.90;;;;;;;;;;5026659;28;20104;-56
2024/01/12 06:08:04;;;;;;;13.02;12.23;;;;;;;;;;5027377;28;20178;-58
2024/01/12 06:10:29;;;;;;;10.82;10.32;;;;;;;;;;5033709;28;20021;-55
2024/01/12 06:12:55;;;;;;;11.27;10.68;;;;;;;;;;5016749;28;20477;-55
2024/01/12 06:15:20;;;;;;;10.77;10.25;;;;;;;;;;5034054;28;20910;-55
2024/01/12 06:17:45;;;;;;;11.00;10.40;;;;;;;;;;5026152;28;20053;-54
2024/01/12 06:20:11;;;;;;;11.77;11.07;;;;;;;;;;5027475;28;20385;-53
2024/01/12 06:22:36;;;;;;;10.98;10.38;;;;;;;;;;5029600;28;20067;-56
2024/01/12 06:25:01;;;;;;;11.40;10.80;;;;;;;;;;5026448;28;20080;-58
2024/01/12 06:27:27;;;;;;;10.73;10.15;;;;;;;;;;5025297;28;20045;-55
2024/01/12 06:29:52;;;;;;;10.40;9.90;;;;;;;;;;5028871;28;20033;-57
2024/01/12 06:32:17;;;;;;;11.63;11.02;;;;;;;;;;5022433;28;20021;-57
2024/01/12 06:34:43;;;;;;;11.85;11.15;;;;;;;;;;5027244;28;20017;-57
2024/01/12 06:37:08;;;;;;;11.48;10.88;;;;;;;;;;5025985;28;20094;-57
2024/01/12 06:39:34;;;;;;;10.48;9.98;;;;;;;;;;5026010;28;20464;-54
2024/01/12 06:41:59;;;;;;;11.30;10.70;;;;;;;;;;5031151;28;20024;-56
2024/01/12 06:44:24;;;;;;;12.30;11.60;;;;;;;;;;5030405;28;20033;-58
2024/01/12 06:46:50;;;;;;;11.23;10.63;;;;;;;;;;5035197;28;20051;-54
2024/01/12 06:49:15;;;;;;;10.98;10.48;;;;;;;;;;5027539;28;20025;-56
2024/01/12 06:51:40;;;;;;;11.65;11.05;;;;;;;;;;5031368;28;20033;-55
2024/01/12 06:54:06;;;;;;;11.52;10.93;;;;;;;;;;5025600;28;20013;-55
2024/01/12 06:56:32;;;;;;;12.07;11.38;;;;;;;;;;5025448;28;20044;-56
2024/01/12 06:58:58;;;;;;;12.57;11.88;;;;;;;;;;5026354;28;20013;-57
2024/01/12 07:01:24;;;;;;;12.55;11.85;;;;;;;;;;5029653;28;20419;-56
2024/01/12 07:03:51;;;;;;;11.52;10.93;;;;;;;;;;5026453;28;20006;-57
2024/01/12 07:06:16;;;;;;;11.85;11.23;;;;;;;;;;5028553;28;20071;-57
2024/01/12 07:08:42;;;;;;;11.60;11.00;;;;;;;;;;5032719;28;20548;-58
2024/01/12 07:11:07;;;;;;;11.18;10.57;;;;;;;;;;5023816;28;20380;-54
2024/01/12 07:13:33;;;;;;;12.05;11.35;;;;;;;;;;5033499;28;20022;-57
2024/01/12 07:15:58;;;;;;;11.25;10.65;;;;;;;;;;5035514;28;20105;-57
2024/01/12 07:18:24;;;;;;;11.13;10.52;;;;;;;;;;5031091;28;20053;-56
2024/01/12 07:20:49;;;;;;;11.90;11.30;;;;;;;;;;5032785;28;20377;-58
2024/01/12 07:23:14;;;;;;;11.60;11.00;;;;;;;;;;5031610;28;20060;-53
2024/01/12 07:25:39;;;;;;;11.10;10.57;;;;;;;;;;5032729;28;20140;-55
2024/01/12 07:28:08;;;;;;;11.50;10.90;;;;;;;;;;5027869;28;20018;-53
2024/01/12 07:30:33;;;;;;;11.77;11.18;;;;;;;;;;5032505;28;20029;-56
2024/01/12 07:32:59;;;;;;;11.98;11.35;;;;;;;;;;5036240;28;20021;-60
2024/01/12 07:35:24;;;;;;;12.30;11.70;;;;;;;;;;5032712;28;20021;-56
2024/01/12 07:37:52;;;;;;;12.52;11.82;;;;;;;;;;5030933;28;20029;-57
2024/01/12 07:40:17;;;;;;;11.60;11.00;;;;;;;;;;5031052;28;20056;-54
2024/01/12 07:42:43;;;;;;;11.85;11.25;;;;;;;;;;5028218;28;20483;-55
2024/01/12 07:45:08;;;;;;;12.27;11.57;;;;;;;;;;5027138;28;20029;-57
2024/01/12 07:47:34;;;;;;;13.25;12.45;;;;;;;;;;5037031;28;20214;-56
2024/01/12 07:49:59;;;;;;;13.02;12.32;;;;;;;;;;5029541;28;20401;-55
2024/01/12 07:52:24;;;;;;;11.30;10.80;;;;;;;;;;5028785;28;20500;-56
2024/01/12 07:54:50;;;;;;;12.07;11.48;;;;;;;;;;5029686;28;20071;-58
2024/01/12 07:57:16;;;;;;;11.32;10.80;;;;;;;;;;5034856;28;20021;-57
2024/01/12 07:59:41;;;;;;;12.02;11.43;;;;;;;;;;5032035;28;20014;-56
2024/01/12 08:02:06;;;;;;;15.43;14.38;;;;;;;;;;5024864;28;20035;-59
2024/01/12 08:04:32;;;;;;;12.82;12.13;;;;;;;;;;5025296;28;20048;-60
2024/01/12 08:06:57;;;;;;;12.88;12.18;;;;;;;;;;5017595;28;20063;-60
2024/01/12 08:09:22;;;;;;;12.90;12.20;;;;;;;;;;5032624;28;20378;-62
2024/01/12 08:11:48;;;;;;;13.05;12.35;;;;;;;;;;5032630;28;20049;-60
2024/01/12 08:14:14;;;;;;;12.23;11.63;;;;;;;;;;5027065;28;20029;-59
2024/01/12 08:16:39;;;;;;;12.52;11.90;;;;;;;;;;5032105;28;20037;-60
2024/01/12 08:19:05;;;;;;;12.10;11.50;;;;;;;;;;5023643;28;20021;-61
2024/01/12 08:21:30;;;;;;;11.90;11.30;;;;;;;;;;5029055;28;20022;-62
2024/01/12 08:23:55;;;;;;;12.70;12.00;;;;;;;;;;5035440;28;20018;-61
2024/01/12 08:26:21;;;;;;;13.57;12.77;;;;;;;;;;5036302;28;20084;-62
2024/01/12 08:28:51;;;;;;;11.88;11.27;;;;;;;;;;5034717;28;20033;-62
2024/01/12 08:31:16;;;;;;;11.30;10.80;;;;;;;;;;5028975;28;20504;-63
2024/01/12 08:33:42;;;;;;;12.15;11.55;;;;;;;;;;5032344;28;20116;-60
2024/01/12 08:36:07;;;;;;;12.95;12.20;;;;;;;;;;5031501;28;20025;-62
2024/01/12 08:38:32;;;;;;;12.57;11.88;;;;;;;;;;5038210;28;20397;-61
2024/01/12 08:40:58;;;;;;;11.80;11.20;;;;;;;;;;5041789;28;20025;-59
2024/01/12 08:43:23;;;;;;;13.15;12.45;;;;;;;;;;5034253;28;20026;-62
2024/01/12 08:45:48;;;;;;;12.82;12.13;;;;;;;;;;5038369;28;20037;-57
2024/01/12 08:48:14;;;;;;;12.20;11.60;;;;;;;;;;5030365;28;20017;-61
2024/01/12 08:50:39;;;;;;;12.90;12.20;;;;;;;;;;5031272;28;20029;-60
2024/01/12 08:53:04;;;;;;;12.73;12.02;;;;;;;;;;5030385;28;20038;-61
2024/01/12 08:55:30;;;;;;;11.55;10.95;;;;;;;;;;5024769;28;20026;-60
2024/01/12 08:57:55;;;;;;;12.95;12.25;;;;;;;;;;5030306;28;20062;-59
2024/01/12 09:00:20;;;;;;;11.00;10.50;;;;;;;;;;5029642;28;20025;-60
2024/01/12 09:02:46;;;;;;;11.80;11.20;;;;;;;;;;5023217;28;20870;-60
2024/01/12 09:05:11;;;;;;;12.20;11.55;;;;;;;;;;5030614;28;20049;-62
2024/01/12 09:07:37;;;;;;;11.10;10.60;;;;;;;;;;5025611;28;20079;-60
2024/01/12 09:10:03;;;;;;;11.23;10.63;;;;;;;;;;5029644;28;20370;-61
2024/01/12 09:12:28;;;;;;;11.40;10.80;;;;;;;;;;5030953;28;20028;-60
2024/01/12 09:14:54;;;;;;;11.15;10.55;;;;;;;;;;5028422;28;20028;-60
2024/01/12 09:17:19;;;;;;;11.45;10.85;;;;;;;;;;5028768;28;20394;-60
2024/01/12 09:19:45;;;;;;;10.43;9.93;;;;;;;;;;5035597;28;20123;-61
2024/01/12 09:22:10;;;;;;;10.55;10.05;;;;;;;;;;5030571;28;20543;-60
2024/01/12 09:24:36;;;;;;;11.38;10.77;;;;;;;;;;5038640;28;20491;-59
2024/01/12 09:27:01;;;;;;;13.10;12.30;;;;;;;;;;5023852;28;20504;-61
2024/01/12 09:29:26;;;;;;;11.48;10.88;;;;;;;;;;5026726;28;20041;-61
2024/01/12 09:31:51;;;;;;;10.75;10.23;;;;;;;;;;5021517;28;20029;-61
2024/01/12 09:34:18;;;;;;;11.30;10.70;;;;;;;;;;5022141;28;20582;-60
2024/01/12 09:36:43;;;;;;;11.00;10.40;;;;;;;;;;5028818;28;20097;-60
2024/01/12 09:39:14;;;;;;;11.05;10.45;;;;;;;;;;5023261;28;20160;-61
2024/01/12 09:41:46;;;;;;;10.93;10.32;;;;;;;;;;5026949;28;20022;-59
2024/01/12 09:44:12;;;;;;;10.35;9.85;;;;;;;;;;5025716;28;20103;-61
2024/01/12 09:46:45;;;;;;;11.13;10.52;;;;;;;;;;5034006;28;20052;-59
2024/01/12 09:49:10;;;;;;;10.43;9.93;;;;;;;;;;5031113;28;20056;-62
2024/01/12 09:51:36;;;;;;;10.95;10.35;;;;;;;;;;5035186;28;20098;-61
2024/01/12 09:54:01;;;;;;;11.82;11.13;;;;;;;;;;5027588;28;20029;-60
2024/01/12 09:56:27;;;;;;;11.98;11.27;;;;;;;;;;5028686;28;20014;-63
2024/01/12 09:58:52;;;;;;;10.88;10.32;;;;;;;;;;5029346;28;20025;-61
2024/01/12 10:01:18;;;;;;;10.50;10.00;;;;;;;;;;5038263;28;20048;-61
2024/01/12 10:03:45;;;;;;;10.68;10.18;;;;;;;;;;5032686;28;20017;-60
2024/01/12 10:06:11;;;;;;;11.60;11.00;;;;;;;;;;5031064;28;20025;-60
2024/01/12 10:08:36;;;;;;;13.23;12.38;;;;;;;;;;5020627;28;20026;-61
2024/01/12 10:11:02;;;;;;;12.85;12.05;;;;;;;;;;5024635;28;20030;-59
2024/01/12 10:13:27;;;;;;;12.13;11.43;;;;;;;;;;5031852;28;20049;-59
2024/01/12 10:15:52;;;;;;;10.90;10.40;;;;;;;;;;5026535;28;20044;-61
2024/01/12 10:18:18;;;;;;;11.60;11.00;;;;;;;;;;5029916;28;20049;-61
2024/01/12 10:20:43;;;;;;;12.02;11.35;;;;;;;;;;5021418;28;20025;-62
2024/01/12 10:23:08;;;;;;;11.65;11.05;;;;;;;;;;5022673;28;20108;-61
2024/01/12 10:25:34;;;;;;;11.25;10.65;;;;;;;;;;5029687;28;20571;-60
2024/01/12 10:27:59;;;;;;;13.13;12.32;;;;;;;;;;5023847;28;20106;-60
2024/01/12 10:30:26;;;;;;;12.13;11.43;;;;;;;;;;5029498;28;20045;-60
2024/01/12 10:32:52;;;;;;;11.43;10.82;;;;;;;;;;5029964;28;20480;-61
2024/01/12 10:35:20;;;;;;;11.50;10.90;;;;;;;;;;5028933;28;20044;-61
2024/01/12 10:37:45;;;;;;;10.93;10.32;;;;;;;;;;5029500;28;20444;-61
2024/01/12 10:40:13;;;;;;;11.80;11.10;;;;;;;;;;5022203;28;20022;-61
2024/01/12 10:42:41;;;;;;;11.23;10.63;;;;;;;;;;5021705;28;20048;-63
2024/01/12 10:45:08;;;;;;;10.82;10.25;;;;;;;;;;5031883;28;20071;-60
2024/01/12 10:47:36;;;;;;;10.73;10.18;;;;;;;;;;5029766;28;20032;-60
2024/01/12 10:50:06;;;;;;;10.55;10.05;;;;;;;;;;5033128;28;20101;-61
2024/01/12 10:53:07;;;;;;;12.07;11.38;;;;;;;;;;5029620;28;20388;-61
2024/01/12 10:55:36;;;;;;;11.85;11.15;;;;;;;;;;5011009;28;20111;-58
2024/01/12 10:58:02;;;;;;;12.00;11.30;;;;;;;;;;5028580;28;20504;-61
2024/01/12 11:00:28;;;;;;;10.15;9.65;;;;;;;;;;5030187;28;20396;-61
2024/01/12 11:02:54;;;;;;;11.80;11.10;;;;;;;;;;5025922;28;20017;-62
2024/01/12 11:05:21;;;;;;;11.60;10.95;;;;;;;;;;5034713;28;20040;-60
2024/01/12 11:07:47;;;;;;;11.00;10.40;;;;;;;;;;5027123;28;20436;-61
2024/01/12 11:10:13;;;;;;;13.10;12.27;;;;;;;;;;5035215;28;20401;-61
2024/01/12 11:12:40;;;;;;;10.57;10.07;;;;;;;;;;5028440;28;20033;-62
2024/01/12 11:15:06;;;;;;;10.80;10.25;;;;;;;;;;5028223;28;20030;-59
2024/01/12 11:17:33;;;;;;;11.10;10.50;;;;;;;;;;5035015;28;20084;-62
2024/01/12 11:20:04;;;;;;;10.70;10.20;;;;;;;;;;5027890;28;20121;-61
2024/01/12 11:22:30;;;;;;;10.65;10.15;;;;;;;;;;5035318;28;20044;-61
2024/01/12 11:24:57;;;;;;;11.00;10.40;;;;;;;;;;5024588;28;20481;-62
2024/01/12 11:27:30;;;;;;;10.48;9.98;;;;;;;;;;5036278;28;20025;-62
2024/01/12 11:29:59;;;;;;;11.15;10.55;;;;;;;;;;5035622;28;20033;-58
2024/01/12 11:32:26;;;;;;;10.18;9.68;;;;;;;;;;5036116;28;20025;-60
2024/01/12 11:34:53;;;;;;;10.98;10.38;;;;;;;;;;5035276;28;20021;-62
2024/01/12 11:37:26;;;;;;;11.95;11.25;;;;;;;;;;5030102;28;20484;-60
2024/01/12 11:39:54;;;;;;;11.20;10.60;;;;;;;;;;5037075;28;20029;-59
2024/01/12 11:42:19;;;;;;;11.18;10.57;;;;;;;;;;5027194;28;20025;-62
2024/01/12 11:44:45;;;;;;;10.73;10.13;;;;;;;;;;5030672;28;20432;-61
2024/01/12 11:47:11;;;;;;;10.75;10.18;;;;;;;;;;5030140;28;20018;-62
2024/01/12 11:49:36;;;;;;;10.90;10.30;;;;;;;;;;5035080;28;20017;-59
2024/01/12 11:52:03;;;;;;;10.57;10.07;;;;;;;;;;5045598;28;20075;-61
2024/01/12 11:54:28;;;;;;;11.07;10.48;;;;;;;;;;5024966;28;20079;-61
2024/01/12 11:56:53;;;;;;;10.52;10.02;;;;;;;;;;5025084;28;20033;-60
2024/01/12 11:59:19;;;;;;;10.73;10.20;;;;;;;;;;5040066;28;20496;-59
2024/01/12 12:01:44;;;;;;;10.82;10.23;;;;;;;;;;5029073;28;20030;-60
2024/01/12 12:04:09;;;;;;;10.52;10.02;;;;;;;;;;5035680;28;20672;-63
2024/01/12 12:06:35;;;;;;;10.20;9.70;;;;;;;;;;5040631;28;20595;-60
2024/01/12 12:09:00;;;;;;;10.25;9.75;;;;;;;;;;5022283;28;20014;-61
2024/01/12 12:11:26;;;;;;;11.27;10.68;;;;;;;;;;5027873;28;20026;-58
2024/01/12 12:13:52;;;;;;;10.35;9.85;;;;;;;;;;5029464;28;20029;-59
2024/01/12 12:16:18;;;;;;;11.45;10.85;;;;;;;;;;5026441;28;20123;-58
2024/01/12 12:18:44;;;;;;;11.30;10.70;;;;;;;;;;5039195;28;20478;-60
2024/01/12 12:21:11;;;;;;;11.20;10.60;;;;;;;;;;5020543;28;20037;-58
2024/01/12 12:23:39;;;;;;;11.23;10.63;;;;;;;;;;5031510;28;20083;-61
2024/01/12 12:26:04;;;;;;;10.70;10.20;;;;;;;;;;5029958;28;20454;-60
2024/01/12 12:28:31;;;;;;;10.63;10.13;;;;;;;;;;5028338;28;20025;-62
2024/01/12 12:30:56;;;;;;;11.07;10.48;;;;;;;;;;5034118;28;20057;-61
2024/01/12 12:33:23;;;;;;;11.52;10.85;;;;;;;;;;5022295;28;20562;-61
2024/01/12 12:35:48;;;;;;;12.15;11.45;;;;;;;;;;5029235;28;20025;-61
2024/01/12 12:38:13;;;;;;;10.32;9.82;;;;;;;;;;5037719;28;20121;-61
2024/01/12 12:40:39;;;;;;;11.00;10.40;;;;;;;;;;5033136;28;20057;-61
2024/01/12 12:43:04;;;;;;;10.30;9.80;;;;;;;;;;5028915;28;20033;-61
2024/01/12 12:45:30;;;;;;;10.30;9.80;;;;;;;;;;5028763;28;20017;-59
2024/01/12 12:47:57;;;;;;;10.80;10.20;;;;;;;;;;5030283;28;20029;-62
2024/01/12 12:50:23;;;;;;;10.75;10.25;;;;;;;;;;5031981;28;20060;-61
2024/01/12 12:52:48;;;;;;;11.20;10.60;;;;;;;;;;5017694;28;20021;-61
2024/01/12 12:55:14;;;;;;;11.13;10.52;;;;;;;;;;5023941;28;20018;-61
2024/01/12 12:57:39;;;;;;;11.00;10.40;;;;;;;;;;5027625;28;20036;-62
2024/01/12 13:00:07;;;;;;;10.98;10.38;;;;;;;;;;5030573;28;20041;-61
2024/01/12 13:02:32;;;;;;;11.27;10.68;;;;;;;;;;5027110;28;20406;-61
2024/01/12 13:04:57;;;;;;;11.88;11.18;;;;;;;;;;5031019;28;20061;-62
2024/01/12 13:07:23;;;;;;;12.82;12.02;;;;;;;;;;5041055;28;20090;-62
2024/01/12 13:09:49;;;;;;;10.75;10.25;;;;;;;;;;5024840;28;20026;-62
2024/01/12 13:12:14;;;;;;;10.10;9.60;;;;;;;;;;5024126;28;20057;-59
2024/01/12 13:14:40;;;;;;;10.50;10.00;;;;;;;;;;5031470;28;20037;-62
2024/01/12 13:17:05;;;;;;;11.00;10.40;;;;;;;;;;5027754;28;20059;-61
2024/01/12 13:19:30;;;;;;;12.52;11.73;;;;;;;;;;5027624;28;20052;-62
2024/01/12 13:21:56;;;;;;;10.57;10.05;;;;;;;;;;5027641;28;20032;-63
2024/01/12 13:24:21;;;;;;;10.60;10.10;;;;;;;;;;5034675;28;20055;-61
2024/01/12 13:26:47;;;;;;;10.82;10.23;;;;;;;;;;5026553;28;20032;-62
2024/01/12 13:29:13;;;;;;;11.20;10.60;;;;;;;;;;5030316;28;20025;-60
2024/01/12 13:31:42;;;;;;;11.57;10.98;;;;;;;;;;5030822;28;20028;-59
2024/01/12 13:34:08;;;;;;;11.60;10.90;;;;;;;;;;5028674;28;20025;-60
2024/01/12 13:36:33;;;;;;;10.60;10.10;;;;;;;;;;5026704;28;20053;-61
2024/01/12 13:38:59;;;;;;;10.50;10.00;;;;;;;;;;5025676;28;20029;-60
2024/01/12 13:41:24;;;;;;;11.50;10.90;;;;;;;;;;5025355;28;20044;-60
2024/01/12 13:43:50;;;;;;;11.27;10.68;;;;;;;;;;5023961;28;20393;-61
2024/01/12 13:46:16;;;;;;;10.55;10.05;;;;;;;;;;5024189;28;20017;-61
2024/01/12 13:48:41;;;;;;;11.32;10.73;;;;;;;;;;5031064;28;20049;-60
2024/01/12 13:51:08;;;;;;;11.75;11.15;;;;;;;;;;5019501;28;20605;-69
2024/01/12 13:53:33;;;;;;;11.70;11.07;;;;;;;;;;5026605;28;20021;-68
2024/01/12 13:55:59;;;;;;;12.43;11.73;;;;;;;;;;5027038;28;20417;-69
2024/01/12 13:58:24;;;;;;;11.18;10.57;;;;;;;;;;5023342;28;20067;-61
2024/01/12 14:00:50;;;;;;;11.32;10.73;;;;;;;;;;5022307;28;20434;-63
2024/01/12 14:03:15;;;;;;;11.43;10.82;;;;;;;;;;5026155;28;20033;-63
2024/01/12 14:05:41;;;;;;;11.05;10.45;;;;;;;;;;5025005;28;20129;-63
2024/01/12 14:08:08;;;;;;;12.13;11.43;;;;;;;;;;5025645;28;20025;-63
2024/01/12 14:10:35;;;;;;;11.68;11.05;;;;;;;;;;5027324;28;20760;-60
2024/01/12 14:13:01;;;;;;;11.77;11.18;;;;;;;;;;5028687;28;20673;-60